首页
METAR-TAF:

METAR-TAF

机场 :

克孜勒奧爾達, 哈萨克斯坦

纬度: 44-51N, 经度: 065-30E, 海拔: 129米

当前天气观测

该预报发布于42分钟前的01:30 UTC
风速4节,风向北转东北
温度 21°C
湿度 33%
气压 1011 hPa
能见度10公里或以上
1500米以下无云,无积雨云

METAR: UAOO 310130Z 02002MPS CAVOK 21/04 Q1011 NOSIG RMK QFE747/0996

时间: 07:12 (02:12 UTC)

预报

该预报发布于3小时和12分钟前的23:00 UTC
预报有效从31日的 00点(UTC)到 31日的 09点(UTC)
风速8节,风向北转东北
能见度10公里或以上
1500米以下无云,无积雨云

TAF: UAOO 302300Z 3100/3109 03004MPS CAVOK

超过4000个机场的气象观测和天气预报(METAR&TAF报告)。

可查询的气象台以黄色和红色小点在地图上表示。

将鼠标移到小点上方,可查看气象台名称。

然后点击查看天气观测和预报。

如需切换地图:点击带黑十字的绿色按钮放大地图;点击带横线的绿色按钮缩小地图;或者点击绿色箭头查看邻近地区的地图。


METAR-TAF: